Mason Valley Wildlife Refuge, Nevada Weather observations

Data are for 10 minute period ending at time listed.
 Day   Time   Solar   Ave.   Ave.  Ave.  Vector  Max.   Baro.   Total    
  of    of     Rad.   Air    Rel.  Wind   Wind   Wind  Press.  Precip.   
Year   Day            Temp.  Hum.  Speed  Dir.   Gust                    
2015   (PST)  Kw/m2    F      %     mph   deg.    mph    mb.     in.     
-------------------------------------------------------------------------
 143    0:00   0.00   50.7    88    3.8   211     6.4   867.5    0.00 
 143    0:10   0.00   50.8    87    4.6   177     7.5   867.5    0.00 
 143    0:20   0.00   50.8    88    4.6   186     7.1   867.3    0.00 
 143    0:30   0.00   50.7    89    5.9   177     8.7   867.3    0.00 
 143    0:40   0.00   50.7    89    4.9   176     7.5   867.3    0.00 
 143    0:50   0.00   50.7    88    3.8   196     5.9   867.3    0.00 
 143    1:00   0.00   50.8    88    2.4   205     3.9   867.3    0.00 
 143    1:10   0.00   51.0    86    2.6   192     4.7   867.3    0.00 
 143    1:20   0.00   51.1    86    3.5   207     5.6   867.2    0.00 
 143    1:30   0.00   51.0    86    2.8   224     4.9   867.2    0.00 
 143    1:40   100.00  99999.0   99999  99999.0   99999   99999.0   99999.0   99999.00 
 143    1:50   0.00   50.8    86    3.8   201     6.2   867.1    0.00 
 143    2:00   0.00   50.5    87    3.3   214     5.8   867.2    0.00 
 143    2:10   0.00   50.2    87    3.1   226     4.5   867.2    0.00 
 143    2:20   0.00   50.5    86    2.7   218     4.1   867.2    0.00 
 143    2:30   0.00   50.5    86    2.9   218     4.5   867.1    0.00 
 143    2:40   0.00   50.0    87    2.1   244     3.4   867.1    0.00 
 143    2:50   0.00   50.0    87    1.2   221     2.6   867.1    0.00 
 143    3:00   0.00   49.4    88    2.4   194     3.4   867.1    0.00 
 143    3:10   0.00   49.0    90    1.5   195     2.7   867.1    0.00 
 143    3:20   0.00   49.3    90    3.0   179     3.9   867.1    0.00 
 143    3:30   0.00   49.6    90    2.4   176     3.3   867.2    0.00 
 143    3:40   0.00   49.2    90    2.8   177     3.7   867.1    0.00 
 143    3:50   0.00   48.7    91    2.5   186     3.7   867.0    0.00 
 143    4:00   0.00   48.4    91    3.1   173     3.9   867.0    0.00 
 143    4:10   0.00   48.3    90    2.8   175     3.6   867.0    0.00 
 143    4:20   0.00   47.8    90    1.2   124     2.7   867.1    0.00 
 143    4:30   0.00   48.1    92    3.4   116     4.1   867.2    0.00 
 143    4:40   0.00   48.1    91    3.0   124     4.0   867.2    0.00 
 143    4:50   0.01   47.8    91    2.4   136     3.7   867.2    0.00 
 143    5:00   0.01   48.2    92    2.3   168     3.9   867.3    0.00 
 143    5:10   0.01   49.2    91    2.5   187     4.7   867.4    0.00 
 143    5:20   0.03   49.7    90    2.6   206     4.7   867.4    0.00 
 143    5:30   0.04   50.1    88    2.7   217     4.5   867.5    0.00 
 143    5:40   0.05   50.9    85    2.8   242     3.9   867.6    0.00 
 143    5:50   0.04   51.3    86    2.5   247     3.7   867.6    0.00 
 143    6:00   0.08   51.5    86    2.1   234     3.1   867.7    0.00 
 143    6:10   0.04   51.8    85    1.1   252     2.2   867.7    0.00 
 143    6:20   0.06   52.2    85    0.1   141     1.2   867.8    0.00 
 143    6:30   0.05   52.3    83    1.1   198     2.0   867.8    0.00 
 143    6:40   0.10   52.8    83    0.7   178     2.4   867.8    0.00 
 143    6:50   0.07   53.0    83    1.9   202     3.8   867.8    0.00 
 143    7:00   0.13   53.8    82    0.3   204     1.4   867.9    0.00 
 143    7:10   0.21   54.5    78    0.5   305     1.6   867.9    0.00 
 143    7:20   0.16   55.1    73    1.2   334     3.4   868.0    0.00 
 143    7:30   0.20   55.4    73    2.2   314     3.9   868.0    0.00 
 143    7:40   0.23   56.0    74    2.6   275     4.7   868.0    0.00 
 143    7:50   0.27   56.8    71    2.6   284     9.4   868.1    0.00 
 143    8:00   0.17   56.9    70    1.4   294     5.4   868.0    0.00 
 143    8:10   0.13   56.3    71    3.2   245     4.5   868.1    0.00 
 143    8:20   0.21   56.4    71    2.6   283     5.0   868.1    0.00 
 143    8:30   0.26   56.4    68    5.9   340    10.3   868.0    0.00 
 143    8:40   0.28   56.6    67    6.7   341    10.1   868.0    0.00 
 143    8:50   0.32   56.9    66    7.9   340    12.4   868.0    0.00 
 143    9:00   0.36   57.2    66    9.3   341    13.7   868.0    0.00 
 143    9:10   0.34   57.2    66    9.8   349    14.7   867.9    0.00 
 143    9:20   0.28   57.5    65    8.3   338    13.8   867.8    0.00 
 143    9:30   0.51   58.2    64    8.8   338    14.5   867.8    0.00 
 143    9:40   0.40   58.4    64    9.0   335    13.4   867.8    0.00 
 143    9:50   0.26   58.5    64    9.3   350    15.0   867.8    0.00 
 143   10:00   0.70   59.5    63   11.5   349    18.3   867.8    0.00 
 143   10:10   0.20   58.9    62   10.8   340    16.7   867.9    0.00 
 143   10:20   0.34   58.1    65   12.9   340    20.5   867.9    0.00 
 143   10:30   0.51   56.9    67   14.3   331    22.1   868.0    0.00 
 143   10:40   0.56   56.4    67   14.0   334    21.9   868.0    0.00 
 143   10:50   0.21   55.5    69   13.0   333    19.5   868.1    0.00 
 143   11:00   0.18   54.8    72    9.8   326    17.1   868.2    0.00 
 143   11:10   0.23   54.9    73    9.1   325    18.6   868.2    0.00 
 143   11:20   0.26   54.8    72    9.6   327    15.9   868.3    0.00 
 143   11:30   0.28   54.9    72    8.3   327    14.2   868.3    0.00 
 143   11:40   0.28   56.0    70    8.3   328    14.0   868.3    0.00 
 143   11:50   0.48   57.3    64    8.8   320    16.1   868.2    0.00 
 143   12:00   0.51   58.7    62    8.0   320    13.4   868.1    0.00 
 143   12:10   0.62   59.6    58    9.2   306    16.1   868.0    0.00 
 143   12:20   0.56   60.4    57    8.1   310    16.4   868.0    0.00 
 143   12:30   0.45   59.6    57    8.2   321    13.0   867.9    0.00 
 143   12:40   0.39   60.5    56    7.3   320    12.4   868.0    0.00 
 143   12:50   0.35   59.7    56    8.2   321    13.8   868.0    0.00 
 143   13:00   0.32   59.8    57    6.3   321    10.8   868.0    0.00 
 143   13:10   0.19   59.7    56    7.7   324    13.5   867.9    0.00 
 143   13:20   0.22   59.2    56    8.7   338    13.7   867.9    0.00 
 143   13:30   0.15   58.9    57    8.4   337    13.2   867.9    0.00 
 143   13:40   0.17   59.0    58    7.1   299    12.7   867.9    0.00 
 143   13:50   0.25   58.8    61    7.0   288    13.6   867.9    0.00 
 143   14:00   0.14   58.6    61    7.5   289    12.6   867.9    0.00 
 143   14:10   0.27   57.9    65    7.8   268    12.0   867.9    0.00 
 143   14:20   0.30   57.8    63    7.1   261    12.7   867.9    0.00 
 143   14:30   0.32   57.6    62    7.6   252    12.7   867.9    0.00 
 143   14:40   0.31   57.7    61    7.7   249    11.3   867.8    0.00 
 143   14:50   0.34   58.1    60    7.3   257    12.3   867.8    0.00 
 143   15:00   0.26   59.0    60    5.5   258     8.4   867.8    0.00 
 143   15:10   0.30   58.7    62    6.8   240    11.2   867.9    0.00 
 143   15:20   0.27   57.7    67    8.1   231    12.3   867.9    0.00 
 143   15:30   0.42   57.3    71    6.2   216     9.9   867.9    0.00 
 143   15:40   0.23   57.6    67    5.9   191    10.5   868.0    0.00 
 143   15:50   0.04   56.8    64    5.6    99    14.4   868.1    0.00 
 143   16:00   0.10   55.0    70    6.0    88    12.9   868.0    0.00 
 143   16:10   0.06   54.2    76    6.2   107     8.7   868.1    0.01 
 143   16:20   0.05   52.9    80    7.7   129    10.2   868.1    0.01 
 143   16:30   0.03   52.1    83    6.3   122     9.9   868.3    0.03 
 143   16:40   0.03   51.5    87    3.7    88     6.5   868.4    0.04 
 143   16:50   0.04   51.3    88    2.4   164     3.4   868.4    0.02 
 143   17:00   0.04   51.4    88    3.9   206     5.6   868.3    0.00 
 143   17:10   0.02   51.3    88    3.1   184     5.8   868.3    0.01 
 143   17:20   0.02   51.4    88    2.1   178     4.3   868.4    0.00 
 143   17:30   0.02   51.4    87    1.3   235     2.9   868.6    0.02 
 143   17:40   0.01   51.4    88    3.3   222     5.8   868.5    0.02 
 143   17:50   0.02   51.1    90    4.6   210     6.9   868.4    0.00 
 143   18:00   0.04   51.2    90    3.7   218     5.9   868.4    0.00 
 143   18:10   0.02   51.1    89    4.5   228     6.8   868.4    0.00 
 143   18:20   0.03   51.1    88    4.6   221     6.9   868.3    0.00 
 143   18:30   0.02   51.1    89    2.8   236     4.5   868.3    0.00 
 143   18:40   0.01   51.1    89    2.4   234     3.4   868.4    0.00 
 143   18:50   0.02   50.8    90    3.2   220     4.0   868.3    0.00 
 143   19:00   0.01   50.3    90    2.2   176     3.4   868.3    0.00 
 143   19:10   0.01   50.1    91    2.8   159     4.1   868.3    0.00 
 143   19:20   0.00   50.1    91    2.8   178     5.0   868.3    0.00 
 143   19:30   0.00   50.5    91    3.4   173     6.3   868.4    0.00 
 143   19:40   0.00   50.7    90    4.3   177     6.0   868.4    0.00 
 143   19:50   0.00   50.8    90    4.3   180     6.9   868.5    0.00 
 143   20:00   0.00   50.8    89    5.0   179     6.9   868.5    0.00 
 143   20:10   0.00   50.5    89    4.5   183     8.0   868.6    0.00 
 143   20:20   0.00   50.4    90    4.2   190     6.3   868.7    0.00 
 143   20:30   0.00   50.5    90    3.6   201     5.6   868.7    0.00 
 143   20:40   0.00   50.8    89    4.5   196     6.8   868.7    0.00 
 143   20:50   0.00   51.0    88    4.2   206     6.9   868.7    0.00 
 143   21:00   0.00   51.0    87    2.9   231     5.0   868.7    0.00 
 143   21:10   0.00   51.1    87    4.0   228     5.9   868.7    0.00 
 143   21:20   0.00   50.8    88    3.8   221     5.6   868.8    0.00 
 143   21:30   0.00   50.8    88    4.0   232     5.4   868.9    0.00 
 143   21:40   0.00   51.1    86    2.9   202     4.5   869.0    0.00 
 143   21:50   0.00   51.0    87    0.7   212     2.3   869.1    0.00 
 143   22:00   0.00   51.0    86    1.7   228     3.8   869.1    0.00 
 143   22:10   0.00   51.1    85    3.4   215     5.0   868.9    0.00 
 143   22:20   0.00   50.8    84    2.0   225     3.9   868.9    0.00 
 143   22:30   0.00   50.4    83    2.6   252     4.7   868.9    0.00 
 143   22:40   0.00   49.5    85    0.5   318     1.9   869.0    0.00 

Return to Mason Valley Wildlife Refuge graphs page.


Western Regional Climate Center,wrcc@dri.edu